EGAC - Belfast / Belfast-Harbour
Distance from station: E 5mi, 14km
Updated: 12/16/2017 10:50am
Partly Cloudy
Partly Cloudy
 Wind from S
Wind: S 6 mph , 9 km/h
Temperature: 41°F , 5°C
Wind Chill: 37°F , 3°C
Dew Point: 39°F , 4°C
Humidity: 93%
Barometer: 30.15 inHg , 1021 hPa
Clouds: Partly Cloudy
Visibility: 6 miles , 10 km
Cloud details: Few Clouds 2800 ft
Partly Cloudy 3200 ft
2017/12/16 18:50 EGAC 161850Z 19005KT 150V230 9999 FEW028 SCT032 05/04 Q1021